Grantham, United Kingdom
Current Conditions -  °F | °C
As of 12:50 PM on Wednesday 26 Nov 2014 (Local Time) from EGYD Reporting Station
Haze Haze  
Wind Chill: 42°   Ceiling: 500
Heat Index: 46°   Visibility: 2.1mi
Dew Point: 45°   Wind: 8mph
Humidity: 93%   Direction: 60°ENE
Pressure: 29.85"   Gusts: NA
Location:  52.92°N, 0.64°W
Report Text: EGYD 261250Z 06007KT 3400 BR FEW004 OVC005 08/07 Q1011 YLO1 BECMG BKN004 YLO2
Loading
Personal Weather Stations






























Interactive Weather Map New forecast layout! Learn more

10-Day Weather Forecast

Advertisements
Track Severe Weather on mobile